Latest Weather Observations for Low Rocky Point

IDT60801

Issued at 2:31 pm EDT Tuesday 23 December 2014 (issued every 30 minutes, with the page automatically refreshed every 10 minutes)

About weather observations | Map of weather stations | Latest weather observations for TAS | Other Formats
Station Details ID: 097080 Name: LOW ROCKY POINT Lat: -42.98 Lon: 145.50 Height: 34.0 m
Data from the previous 72 hours. | See also: Recent months at Low Rocky Point
Date/Time
EDT
Temp
°C
App
Temp
°C
Dew
Point
Rel
Hum
%
Delta-T
°C
Wind Press
QNH
hPa
Press
MSL
hPa
Rain
since 9 am
mm
Dir
 
Spd
km/h
Gust
km/h
Spd
kts
Gust
kts
23/02:30pm 11.8 8.7 11.6 99 0.1 SSW 19 26 10 14 1007.6 1007.6 11.2
23/02:00pm 11.8 8.7 11.6 99 0.1 SW 19 28 10 15 1007.2 1007.2 10.8
23/01:30pm 11.8 8.1 11.6 99 0.1 S 22 28 12 15 1006.7 1006.7 8.8
23/01:00pm 12.0 8.0 11.8 99 0.1 SSW 24 30 13 16 1006.5 1006.5 7.6
23/12:30pm 12.2 9.0 12.0 99 0.1 SSW 20 30 11 16 1006.4 1006.4 6.6
23/12:00pm 12.7 9.9 12.5 99 0.1 S 19 24 10 13 1006.4 1006.4 4.4
23/11:30am 12.9 10.1 12.7 99 0.1 SSW 19 24 10 13 1006.3 1006.3 2.4
23/11:00am 13.0 10.6 12.8 99 0.1 SSW 17 24 9 13 1006.1 1006.1 0.6
23/10:30am 13.1 10.4 12.9 99 0.1 SSW 19 26 10 14 1006.2 1006.2 0.0
23/10:00am 13.4 10.8 13.2 99 0.1 SSW 19 26 10 14 1006.1 1006.1 0.0
23/09:30am 13.9 11.8 13.7 99 0.1 S 17 20 9 11 1006.2 1006.2 0.0
23/09:00am 13.9 12.2 13.7 99 0.1 S 15 19 8 10 1006.1 1006.1 3.8
23/08:30am 14.0 12.0 13.8 99 0.1 SSE 17 20 9 11 1005.8 1005.8 3.6
23/08:00am 14.0 12.4 13.8 99 0.1 SE 15 19 8 10 1005.6 1005.6 3.6
23/07:30am 13.9 12.6 13.7 99 0.1 ESE 13 15 7 8 1005.6 1005.6 3.6
23/07:00am 13.7 11.6 13.5 99 0.1 SE 17 20 9 11 1005.4 1005.4 3.4
23/06:30am 13.5 10.7 13.3 99 0.1 SE 20 24 11 13 1005.5 1005.5 3.4
23/05:30am 13.5 10.9 13.3 99 0.1 SE 19 24 10 13 1006.2 1006.2 2.6
23/05:00am 13.5 10.9 13.3 99 0.1 SE 19 22 10 12 1006.5 1006.5 2.4
23/04:30am 13.5 10.9 13.3 99 0.1 SE 19 22 10 12 1006.7 1006.7 2.4
23/04:00am 13.2 11.3 13.0 99 0.1 SSE 15 20 8 11 1007.3 1007.3 2.4
23/03:30am 13.2 10.9 13.0 99 0.1 SSE 17 22 9 12 1007.7 1007.7 2.4
23/03:00am 13.3 10.7 13.1 99 0.1 S 19 26 10 14 1008.4 1008.4 2.4
23/02:30am 13.4 10.2 13.2 99 0.1 S 22 28 12 15 1008.6 1008.6 2.4
23/02:00am 13.6 10.9 13.4 99 0.1 S 20 26 11 14 1008.8 1008.8 2.4
23/01:30am 13.6 11.0 13.3 98 0.2 SSE 19 24 10 13 1009.0 1009.0 2.4
23/01:00am 13.6 11.4 13.3 98 0.2 S 17 20 9 11 1009.3 1009.3 2.4
23/12:30am 13.4 11.1 12.9 97 0.3 SE 17 20 9 11 1009.0 1009.0 2.4
23/12:00am 13.3 11.3 12.8 97 0.3 SE 15 19 8 10 1009.6 1009.6 2.2
 
Date/Time
EDT
Temp
°C
App
Temp
°C
Dew
Point
Rel
Hum
%
Delta-T
°C
Wind Press
QNH
hPa
Press
MSL
hPa
Rain
since 9 am
mm
Dir
 
Spd
km/h
Gust
km/h
Spd
kts
Gust
kts
22/11:30pm 13.0 10.1 12.4 96 0.3 ESE 19 20 10 11 1009.8 1009.8 2.2
22/11:00pm 12.8 10.3 12.2 96 0.3 ESE 17 20 9 11 1010.5 1010.5 2.2
22/10:30pm 12.7 9.7 11.9 95 0.4 ESE 19 20 10 11 1010.8 1010.8 2.2
22/10:00pm 12.8 10.2 11.9 94 0.5 ESE 17 19 9 10 1011.0 1011.0 1.8
22/09:30pm 12.7 10.7 11.4 92 0.7 ESE 13 17 7 9 1011.3 1011.3 1.6
22/09:00pm 12.6 10.1 11.2 91 0.7 SE 15 19 8 10 1011.4 1011.4 1.4
22/08:30pm 12.6 10.5 11.0 90 0.8 SE 13 15 7 8 1011.7 1011.7 1.4
22/08:00pm 12.6 9.6 10.7 88 1.0 SE 17 19 9 10 1011.3 1011.3 1.4
22/07:30pm 12.8 9.7 10.3 85 1.3 SE 17 20 9 11 1011.4 1011.4 0.8
22/07:00pm 13.3 10.1 10.1 81 1.7 SE 17 20 9 11 1011.3 1011.3 0.2
22/06:30pm 13.7 10.9 9.9 78 2.0 ESE 15 17 8 9 1011.3 1011.3 0.0
22/06:00pm 13.9 11.8 9.9 77 2.1 ESE 11 15 6 8 1011.4 1011.4 0.0
22/05:30pm 13.7 12.0 9.7 77 2.1 S 9 13 5 7 1012.1 1012.1 0.0
22/05:00pm 14.0 11.9 9.6 75 2.3 SE 11 15 6 8 1012.5 1012.5 0.0
22/04:30pm 14.9 13.2 9.9 72 2.6 SE 9 11 5 6 1012.7 1012.7 0.0
22/04:00pm 15.4 13.8 10.2 71 2.7 SSE 9 13 5 7 1013.1 1013.1 0.0
22/03:30pm 15.3 13.6 9.9 70 2.8 SW 9 13 5 7 1013.6 1013.6 0.0
22/03:00pm 15.6 13.5 9.7 68 3.1 SW 11 15 6 8 1014.0 1014.0 0.0
22/02:30pm 15.9 13.7 9.3 65 3.4 W 11 15 6 8 1014.3 1014.3 0.0
22/02:00pm 16.6 14.6 10.0 65 3.5 W 11 15 6 8 1014.7 1014.7 0.0
22/01:30pm 16.1 13.7 10.0 67 3.2 WSW 13 17 7 9 1014.8 1014.8 0.0
22/01:00pm 16.8 14.6 10.9 68 3.2 WSW 13 19 7 10 1015.1 1015.1 0.0
22/12:30pm 17.0 14.6 11.5 70 3.0 WSW 15 19 8 10 1015.4 1015.4 0.0
22/12:00pm 16.2 14.0 10.9 71 2.8 WSW 13 17 7 9 1015.3 1015.3 0.0
22/11:30am 16.6 14.5 11.3 71 2.9 WSW 13 17 7 9 1015.6 1015.5 0.0
22/11:00am 16.4 14.3 11.3 72 2.7 SW 13 17 7 9 1015.6 1015.5 0.0
22/10:30am 16.5 14.8 12.5 77 2.2 S 13 20 7 11 1015.6 1015.5 0.0
22/10:00am 16.1 14.6 13.0 82 1.7 SSW 13 17 7 9 1015.7 1015.6 0.0
22/09:30am 15.2 13.9 12.5 84 1.5 SSE 11 15 6 8 1015.8 1015.7 0.0
22/09:00am 14.7 13.5 12.7 88 1.1 S 11 13 6 7 1015.8 1015.7 0.0
22/08:30am 13.3 13.9 11.9 91 0.8 CALM 0 0 0 0 1015.7 1015.6 0.0
22/08:00am 13.4 13.4 12.3 93 0.6 S 4 7 2 4 1015.6 1015.5 0.0
22/07:30am 12.6 12.0 11.8 95 0.4 ESE 6 9 3 5 1015.0 1015.0 0.0
22/07:00am 12.4 11.8 11.8 96 0.3 NE 6 7 3 4 1014.8 1014.8 0.0
22/06:30am 10.4 10.0 9.6 95 0.4 NE 2 6 1 3 1014.7 1014.7 0.0
22/06:00am 10.4 10.0 9.6 95 0.4 N 2 6 1 3 1014.5 1014.5 0.0
22/05:30am 9.9 8.3 8.8 93 0.5 N 7 9 4 5 1014.4 1014.4 0.0
22/05:00am 10.4 8.9 9.3 93 0.5 NNE 7 9 4 5 1014.0 1014.0 0.0
22/04:30am 10.2 8.6 8.8 91 0.7 NE 7 13 4 7 1013.9 1013.9 0.0
22/04:00am 10.5 8.6 8.9 90 0.8 NNE 9 11 5 6 1014.0 1014.0 0.0
22/03:30am 10.8 9.2 8.9 88 0.9 NNE 7 9 4 5 1014.3 1014.3 0.0
22/03:00am 11.6 11.5 9.5 87 1.1 CALM 0 0 0 0 1014.5 1014.5 0.0
22/02:30am 12.2 11.1 10.1 87 1.1 NW 6 7 3 4 1014.6 1014.6 0.0
22/02:00am 12.4 11.8 10.3 87 1.1 WNW 4 6 2 3 1014.8 1014.8 0.0
22/01:30am 12.5 11.3 10.4 87 1.1 WSW 7 9 4 5 1015.0 1015.0 0.0
22/01:00am 12.6 11.5 10.5 87 1.1 SW 7 11 4 6 1014.9 1014.9 0.0
22/12:30am 12.8 11.4 10.9 88 1.0 W 9 13 5 7 1014.8 1014.8 0.0
22/12:00am 12.9 11.5 11.0 88 1.0 WSW 9 13 5 7 1014.7 1014.7 0.0
 
Date/Time
EDT
Temp
°C
App
Temp
°C
Dew
Point
Rel
Hum
%
Delta-T
°C
Wind Press
QNH
hPa
Press
MSL
hPa
Rain
since 9 am
mm
Dir
 
Spd
km/h
Gust
km/h
Spd
kts
Gust
kts
21/11:30pm 12.9 11.5 11.0 88 1.0 WSW 9 13 5 7 1014.8 1014.8 0.0
21/11:00pm 13.1 11.4 11.3 89 1.0 WSW 11 17 6 9 1014.8 1014.8 0.0
21/10:30pm 13.2 11.2 11.4 89 1.0 WSW 13 19 7 10 1014.7 1014.7 0.0
21/10:00pm 13.2 10.9 11.6 90 0.9 WSW 15 20 8 11 1014.7 1014.7 0.0
21/09:30pm 13.4 9.8 11.8 90 0.9 W 22 28 12 15 1014.4 1014.4 0.0
21/09:00pm 13.7 8.9 11.6 87 1.1 W 28 35 15 19 1014.1 1014.1 0.0
21/08:30pm 14.6 10.0 12.3 86 1.3 WNW 28 35 15 19 1013.7 1013.7 0.0
21/08:00pm 15.3 11.7 13.1 87 1.2 NW 24 32 13 17 1013.5 1013.5 0.0
21/07:30pm 15.3 11.2 13.8 91 0.8 NW 28 33 15 18 1013.2 1013.2 0.0
21/07:00pm 14.6 10.4 13.6 94 0.6 NW 28 33 15 18 1013.1 1013.1 0.0
21/06:30pm 14.2 9.6 13.4 95 0.4 NW 30 33 16 18 1012.9 1012.9 0.0
21/06:00pm 13.7 8.5 12.8 94 0.5 NW 32 37 17 20 1012.8 1012.8 0.0
21/05:30pm 15.0 7.9 13.5 91 0.8 NW 43 57 23 31 1012.5 1012.5 0.0
21/05:00pm 15.5 8.4 13.9 90 0.9 NW 44 54 24 29 1012.6 1012.6 0.0
21/04:30pm 15.2 8.2 13.6 90 0.9 NW 43 52 23 28 1012.6 1012.6 0.0
21/04:00pm 15.4 7.4 13.6 89 1.0 NW 48 56 26 30 1012.5 1012.5 0.0
21/03:30pm 15.6 8.1 14.0 90 0.9 NW 46 54 25 29 1012.5 1012.5 0.0
21/03:00pm 14.7 7.4 12.9 89 1.0 NW 43 52 23 28 1012.6 1012.6 0.0
21/02:30pm 15.1 6.8 12.6 85 1.4 NW 48 56 26 30 1012.3 1012.3 0.0
21/02:00pm 15.1 7.0 11.9 81 1.7 NW 46 57 25 31 1012.4 1012.4 0.0
21/01:30pm 15.6 7.0 11.8 78 2.1 NW 48 56 26 30 1012.4 1012.4 0.0
21/01:00pm 15.8 7.6 11.6 76 2.3 NW 46 57 25 31 1012.1 1012.1 0.0
21/12:30pm 15.8 8.5 11.4 75 2.4 NW 41 50 22 27 1012.2 1012.2 0.0
21/12:00pm 15.9 8.0 10.9 72 2.7 NW 43 50 23 27 1012.3 1012.3 0.0
21/11:30am 16.0 9.2 11.8 76 2.3 NNW 39 50 21 27 1012.3 1012.3 0.0
21/11:00am 15.2 8.2 11.2 77 2.1 NNW 39 50 21 27 1012.6 1012.6 0.0
21/10:30am 15.2 9.3 11.0 76 2.2 NNW 33 43 18 23 1013.0 1013.0 0.0
21/10:00am 15.2 8.9 11.0 76 2.2 NNW 35 43 19 23 1013.6 1013.6 0.0
21/09:30am 15.6 11.1 11.4 76 2.3 NNW 26 32 14 17 1013.4 1013.4 0.0
21/09:00am 15.5 11.5 11.7 78 2.1 NNW 24 35 13 19 1014.2 1014.2 0.0
21/08:30am 14.4 11.2 11.2 81 1.7 NNW 19 26 10 14 1014.0 1014.0 0.0
21/08:00am 13.8 11.0 11.5 86 1.2 N 17 24 9 13 1013.9 1013.9 0.0
21/07:30am 12.9 10.1 11.5 91 0.7 NNE 17 22 9 12 1013.6 1013.6 0.0
21/07:00am 11.1 7.4 10.0 93 0.6 NNE 20 26 11 14 1013.5 1013.5 0.0
21/06:30am 10.1 5.8 9.3 95 0.4 NNE 22 26 12 14 1013.7 1013.7 0.0
21/06:00am 9.8 5.8 9.0 95 0.4 NNE 20 26 11 14 1013.7 1013.7 0.0
21/05:30am 10.3 6.4 9.5 95 0.4 NNE 20 28 11 15 1013.8 1013.8 0.0
21/05:00am 10.3 6.4 9.5 95 0.4 N 20 24 11 13 1015.0 1015.0 0.0
21/04:30am 9.5 5.6 8.7 95 0.4 N 19 22 10 12 1014.6 1014.6 0.0
21/04:00am 9.5 5.6 8.6 94 0.4 N 19 24 10 13 1014.2 1014.2 0.0
21/03:30am 9.0 4.8 8.1 94 0.4 N 20 24 11 13 1013.9 1013.9 0.0
21/03:00am 8.6 4.2 7.5 93 0.5 NNE 20 22 11 12 1013.8 1013.8 0.0
21/02:30am 9.0 4.9 7.8 92 0.6 NNE 19 20 10 11 1014.2 1014.2 0.0
21/02:00am 8.9 4.6 7.7 92 0.6 NNE 20 24 11 13 1014.3 1014.3 0.0
21/01:30am 9.0 4.3 7.6 91 0.7 NNE 22 26 12 14 1014.6 1014.6 0.0
21/01:00am 9.0 4.6 7.3 89 0.8 NNE 20 22 11 12 1015.1 1015.1 0.0
21/12:30am 9.2 4.9 7.2 87 0.9 NNE 19 20 10 11 1015.6 1015.5 0.0
21/12:00am 9.9 6.9 7.5 85 1.1 N 13 15 7 8 1015.8 1015.7 0.0
 
Date/Time
EDT
Temp
°C
App
Temp
°C
Dew
Point
Rel
Hum
%
Delta-T
°C
Wind Press
QNH
hPa
Press
MSL
hPa
Rain
since 9 am
mm
Dir
 
Spd
km/h
Gust
km/h
Spd
kts
Gust
kts
20/11:30pm 10.1 7.4 7.2 82 1.4 N 11 13 6 7 1016.0 1015.9 0.0
20/11:00pm 10.1 6.9 6.8 80 1.6 NNE 13 15 7 8 1016.0 1015.9 0.0
20/10:30pm 10.4 7.9 6.7 78 1.7 N 9 13 5 7 1016.2 1016.1 0.0
20/10:00pm 11.8 9.2 7.9 77 1.9 WNW 11 13 6 7 1016.3 1016.2 0.0
20/09:30pm 12.1 9.6 8.0 76 2.0 W 11 13 6 7 1016.0 1015.9 0.0
20/09:00pm 12.6 10.1 8.3 75 2.1 W 11 13 6 7 1016.0 1015.9 0.0
20/08:30pm 13.4 11.0 8.7 73 2.4 W 11 13 6 7 1016.2 1016.1 0.0
20/08:00pm 14.1 11.4 9.1 72 2.5 WNW 13 17 7 9 1016.3 1016.2 0.0
20/07:30pm 14.6 11.6 9.2 70 2.8 W 15 19 8 10 1016.2 1016.1 0.0
20/07:00pm 15.2 12.3 9.6 69 2.9 W 15 19 8 10 1016.1 1016.0 0.0
20/06:30pm 15.0 12.0 9.4 69 2.9 W 15 19 8 10 1015.9 1015.8 0.0
20/06:00pm 15.4 12.1 9.5 68 3.1 W 17 20 9 11 1015.9 1015.8 0.0
20/05:30pm 16.2 13.3 10.9 71 2.8 W 17 22 9 12 1015.7 1015.6 0.0
20/05:00pm 16.6 13.7 10.9 69 3.1 W 17 20 9 11 1015.7 1015.6 0.0
20/04:30pm 16.6 13.4 11.3 71 2.9 W 19 20 10 11 1015.8 1015.7 0.0
20/04:00pm 15.7 12.1 10.7 72 2.7 W 20 24 11 13 1015.9 1015.8 0.0
20/03:30pm 15.7 12.4 10.9 73 2.6 W 19 24 10 13 1015.8 1015.7 0.0
20/03:00pm 16.6 13.3 11.5 72 2.8 W 20 24 11 13 1015.7 1015.6 0.0

Other Formats:

Comma delimited format used in spreadsheet applications
http://www.bom.gov.au/fwo/IDT60801/IDT60801.95961.axf

JavaScript Object Notation format (JSON) in row-major order
http://www.bom.gov.au/fwo/IDT60801/IDT60801.95961.json